Monte Belo, Brazil
Current Conditions -  °F | °C
As of 2:40 PM on Saturday 22 Nov 2014 (Local Time) from SBYS Reporting Station
Broken Clouds Broken Clouds  
Wind Chill: 81°   Ceiling: 10000
Heat Index: 82°   Visibility: 6mi
Dew Point: 64°   Wind: 35mph
Humidity: 58%   Direction: 280°W
Pressure: 29.91"   Gusts: NA
Location:  21.33°S, 46.37°W
Report Text: SBYS 221640Z 28030KT 9999 SCT040 BKN100 27/18 Q1013
Loading
Personal Weather Stations






























Interactive Weather Map New forecast layout! Learn more

10-Day Weather Forecast

Advertisements
Track Severe Weather on mobile